aviador You're here:

RKTN Decoded Metar

TAEGU in KOREA
Report Time2017-11-18 13:00:00
UTC Time2017-11-18 13:53:10
Flight Rules vfr VFR
Wind300° at 06 kt
W.Decomp.*RWY 31: 6.0 kt HW 0.3 kt LCW
W.Rank300° ranks 1
Current wind is below 300° avg. (6.5)
Visibility9999 m
Phenomena:N/A
Clouds:N/A
Expected CloudBase > 6,000 ft AGL from Temp-Dew spread
CeilingNone
Temp00°C (ISA -15)
Dew Point-15°C (32% RH)
AAT-5.5°C
QNH1023 hPa
Density Alt-2,001 ft
Elevation115 ft
Report Wrong Elevation
Raw Report
METAR RKTN 181300Z 30006KT CAVOK 00/M15 Q1023 NOSIG=

Extra information for RKTN:More info

Metar Taf Metar & Taf Last 4 Metars F.Rules Stats Wind Profile Meteogram Temp Stats Airport Information Weather charts Add Link Nearby VenuesMetar ALERT Operation Metar Decoded Social comments